Time;durP1;ratioP1;P1;durP2;ratioP2;P2;SDS_P1;SDS_P2;PMS_P1;PMS_P2;Temp;Humidity;BMP_temperature;BMP_pressure;BME280_temperature;BME280_humidity;BME280_pressure;Samples;Min_cycle;Max_cycle;Signal;HPM_P1;HPM_P2
2022/01/11 00:00:27;;;;;;;2.63;2.10;;;22.10;33.70;;;;;;5094802;28;20382;-64
2022/01/11 00:02:54;;;;;;;2.60;1.90;;;22.00;33.70;;;;;;5094837;28;20386;-66
2022/01/11 00:05:30;;;;;;;3.78;2.05;;;22.00;33.60;;;;;;5094391;28;20413;-64
2022/01/11 00:07:56;;;;;;;2.90;1.80;;;21.90;33.70;;;;;;5094444;28;20413;-65
2022/01/11 00:10:30;;;;;;;2.45;1.85;;;21.90;33.60;;;;;;5093421;28;20382;-63
2022/01/11 00:12:57;;;;;;;2.22;1.95;;;21.90;33.50;;;;;;5094479;28;20413;-68
2022/01/11 00:15:24;;;;;;;2.55;1.83;;;21.90;33.70;;;;;;5094148;28;20381;-67
2022/01/11 00:17:50;;;;;;;3.08;1.90;;;21.90;33.50;;;;;;5094238;28;20870;-66
2022/01/11 00:20:19;;;;;;;2.97;1.98;;;21.90;33.50;;;;;;5094515;28;20457;-66
2022/01/11 00:25:23;;;;;;;2.97;2.00;;;21.80;33.80;;;;;;5093959;28;20734;-63
2022/01/11 00:27:48;;;;;;;2.80;1.90;;;21.80;33.70;;;;;;5094355;28;20874;-67
2022/01/11 00:30:14;;;;;;;4.00;1.90;;;21.80;33.60;;;;;;5092883;28;20425;-67
2022/01/11 00:32:45;;;;;;;2.37;2.00;;;21.80;33.70;;;;;;5094281;28;20765;-67
2022/01/11 00:35:15;;;;;;;2.33;1.80;;;21.80;33.60;;;;;;5093864;28;20920;-65
2022/01/11 00:37:41;;;;;;;2.50;1.80;;;21.80;33.70;;;;;;5092964;28;20425;-68
2022/01/11 00:40:08;;;;;;;2.53;1.90;;;21.80;33.50;;;;;;5094179;28;20421;-67
2022/01/11 00:42:34;;;;;;;2.85;1.98;;;21.80;33.50;;;;;;5092837;28;20401;-67
2022/01/11 00:45:04;;;;;;;2.75;1.85;;;21.80;33.70;;;;;;5094137;28;20433;-67
2022/01/11 00:47:30;;;;;;;2.30;1.77;;;21.80;34.30;;;;;;5093570;28;20398;-67
2022/01/11 00:49:56;;;;;;;2.43;1.90;;;21.80;33.60;;;;;;5093978;28;20749;-65
2022/01/11 00:52:22;;;;;;;2.28;1.70;;;21.80;33.50;;;;;;5093816;28;20443;-63
2022/01/11 00:54:47;;;;;;;2.17;1.63;;;21.80;33.50;;;;;;5093852;28;20480;-66
2022/01/11 00:57:13;;;;;;;2.72;1.95;;;21.80;33.50;;;;;;5093125;28;20385;-66
2022/01/11 00:59:39;;;;;;;2.10;1.70;;;21.80;33.50;;;;;;5093758;28;20436;-66
2022/01/11 01:02:05;;;;;;;2.80;1.92;;;21.80;33.50;;;;;;5093810;28;20385;-66
2022/01/11 01:04:31;;;;;;;2.53;1.88;;;21.80;33.50;;;;;;5093194;28;20413;-62
2022/01/11 01:06:57;;;;;;;2.40;1.90;;;21.80;33.50;;;;;;5093619;28;21016;-67
2022/01/11 01:09:25;;;;;;;2.08;1.70;;;21.70;33.50;;;;;;5092941;28;20414;-65
2022/01/11 01:11:51;;;;;;;2.20;1.75;;;21.70;33.60;;;;;;5093426;28;20409;-63
2022/01/11 01:14:17;;;;;;;2.40;1.88;;;21.70;33.40;;;;;;5093415;28;20390;-67
2022/01/11 01:16:43;;;;;;;2.15;1.70;;;21.70;33.50;;;;;;5093379;28;20865;-66
2022/01/11 01:19:09;;;;;;;2.17;1.90;;;21.70;33.50;;;;;;5092936;28;20402;-63
2022/01/11 01:21:38;;;;;;;2.40;1.60;;;21.60;33.40;;;;;;5093380;28;20741;-67
2022/01/11 01:24:08;;;;;;;2.42;1.70;;;21.60;33.40;;;;;;5093311;28;20419;-63
2022/01/11 01:26:34;;;;;;;2.60;1.70;;;21.70;33.50;;;;;;5091981;28;20820;-68
2022/01/11 01:29:00;;;;;;;2.40;1.77;;;21.60;33.40;;;;;;5093260;28;20390;-66
2022/01/11 01:31:27;;;;;;;2.55;1.80;;;21.70;33.50;;;;;;5091467;28;20945;-65
2022/01/11 01:33:54;;;;;;;2.28;1.67;;;21.60;33.40;;;;;;5093263;28;20398;-66
2022/01/11 01:36:21;;;;;;;2.38;1.90;;;21.60;33.40;;;;;;5092994;28;20922;-66
2022/01/11 01:38:46;;;;;;;2.08;1.70;;;21.60;33.40;;;;;;5093049;28;20456;-62
2022/01/11 01:41:16;;;;;;;2.17;1.70;;;21.60;33.40;;;;;;5092381;28;20901;-62
2022/01/11 01:43:43;;;;;;;2.58;1.80;;;21.60;33.30;;;;;;5092944;28;20393;-67
2022/01/11 01:46:09;;;;;;;2.17;1.60;;;21.60;33.40;;;;;;5093085;28;20442;-68
2022/01/11 01:48:36;;;;;;;2.20;1.60;;;21.60;33.40;;;;;;5092748;28;20398;-67
2022/01/11 01:51:02;;;;;;;1.90;1.60;;;21.60;33.40;;;;;;5092845;28;20394;-63
2022/01/11 01:53:28;;;;;;;2.30;1.63;;;21.70;33.40;;;;;;5092154;28;20414;-63
2022/01/11 01:55:55;;;;;;;2.05;1.52;;;21.70;33.40;;;;;;5092656;28;20738;-63
2022/01/11 01:58:21;;;;;;;2.13;1.67;;;21.60;33.30;;;;;;5092664;28;20966;-66
2022/01/11 02:00:54;;;;;;;1.90;1.70;;;21.60;33.40;;;;;;5092703;28;20465;-64
2022/01/11 02:03:26;;;;;;;2.28;1.70;;;21.60;33.40;;;;;;5092085;28;20374;-67
2022/01/11 02:05:53;;;;;;;2.35;1.80;;;21.60;33.40;;;;;;5091218;28;20750;-67
2022/01/11 02:08:18;;;;;;;2.08;1.58;;;21.60;33.30;;;;;;5091640;28;20394;-64
2022/01/11 02:10:44;;;;;;;2.10;1.70;;;21.60;33.30;;;;;;5092397;28;20398;-66
2022/01/11 02:13:10;;;;;;;2.03;1.70;;;21.60;33.30;;;;;;5091864;28;20420;-64
2022/01/11 02:15:36;;;;;;;2.37;1.70;;;21.60;33.40;;;;;;5092320;28;20472;-67
2022/01/11 02:18:15;;;;;;;2.20;1.70;;;21.50;33.30;;;;;;5092237;28;20394;-65
2022/01/11 02:20:44;;;;;;;2.13;1.70;;;21.60;33.30;;;;;;5092271;28;20386;-67
2022/01/11 02:23:10;;;;;;;2.17;1.52;;;21.50;33.30;;;;;;5091982;28;20754;-67
2022/01/11 02:25:36;;;;;;;2.83;1.70;;;21.60;33.40;;;;;;5092223;28;20854;-67
2022/01/11 02:28:04;;;;;;;1.95;1.70;;;21.50;33.30;;;;;;5092206;28;20412;-67
2022/01/11 02:30:32;;;;;;;2.63;1.70;;;21.50;33.30;;;;;;5092041;28;20874;-62
2022/01/11 02:32:58;;;;;;;2.08;1.60;;;21.50;33.30;;;;;;5090702;28;20528;-63
2022/01/11 02:35:24;;;;;;;2.33;1.80;;;21.50;33.30;;;;;;5091593;28;20437;-67
2022/01/11 02:37:50;;;;;;;2.63;1.60;;;21.50;33.30;;;;;;5092005;28;20374;-68
2022/01/11 02:40:17;;;;;;;2.17;1.80;;;21.50;33.30;;;;;;5091814;28;20390;-62
2022/01/11 02:42:43;;;;;;;2.47;1.80;;;21.50;33.30;;;;;;5090323;28;20390;-63
2022/01/11 02:45:20;;;;;;;2.20;1.90;;;21.50;33.30;;;;;;5090367;28;20396;-63
2022/01/11 02:47:47;;;;;;;2.45;2.00;;;21.50;33.20;;;;;;5091838;28;20390;-67
2022/01/11 02:50:14;;;;;;;2.35;1.70;;;21.50;33.30;;;;;;5091823;28;20746;-66
2022/01/11 02:52:40;;;;;;;2.00;1.67;;;21.50;33.30;;;;;;5090287;28;20957;-67
2022/01/11 02:55:12;;;;;;;2.65;1.90;;;21.50;33.30;;;;;;5091729;28;20382;-67
2022/01/11 02:57:38;;;;;;;2.28;1.70;;;21.50;33.30;;;;;;5091725;28;20409;-63
2022/01/11 03:00:07;;;;;;;2.50;1.80;;;21.50;33.30;;;;;;5091693;28;20386;-67
2022/01/11 03:02:33;;;;;;;2.97;1.90;;;21.50;33.30;;;;;;5091232;28;20387;-67
2022/01/11 03:04:58;;;;;;;2.83;1.95;;;21.50;33.30;;;;;;5091727;28;20389;-67
2022/01/11 03:07:24;;;;;;;2.30;2.00;;;21.50;33.40;;;;;;5090355;28;20746;-63
2022/01/11 03:10:05;;;;;;;2.53;2.08;;;21.50;33.30;;;;;;5091003;28;20739;-67
2022/01/11 03:12:31;;;;;;;2.17;1.90;;;21.50;33.40;;;;;;5091441;28;20405;-67
2022/01/11 03:14:57;;;;;;;2.70;2.30;;;21.50;33.20;;;;;;5091562;28;20903;-65
2022/01/11 03:17:25;;;;;;;2.55;2.17;;;21.40;33.20;;;;;;5090999;28;20390;-67
2022/01/11 03:19:53;;;;;;;2.40;2.10;;;21.40;33.30;;;;;;5091623;28;20874;-67
2022/01/11 03:22:19;;;;;;;2.67;2.00;;;21.40;33.40;;;;;;5094344;28;20402;-68
2022/01/11 03:24:44;;;;;;;2.75;2.00;;;21.40;33.30;;;;;;5095651;28;20396;-63
2022/01/11 03:27:10;;;;;;;2.50;2.20;;;21.40;33.40;;;;;;5095329;28;20385;-62
2022/01/11 03:29:38;;;;;;;2.65;2.30;;;21.40;33.40;;;;;;5095103;28;20896;-67
2022/01/11 03:32:04;;;;;;;3.10;2.30;;;21.40;33.30;;;;;;5093991;28;20397;-67
2022/01/11 03:34:31;;;;;;;2.80;2.25;;;21.40;33.20;;;;;;5095308;28;20464;-67
2022/01/11 03:36:57;;;;;;;2.72;2.08;;;21.40;33.20;;;;;;5094180;28;20385;-62
2022/01/11 03:39:24;;;;;;;2.50;2.10;;;21.40;33.40;;;;;;5094786;28;20401;-62
2022/01/11 03:41:50;;;;;;;2.40;2.20;;;21.30;33.30;;;;;;5095371;28;20466;-63
2022/01/11 03:44:15;;;;;;;2.28;2.00;;;21.20;34.00;;;;;;5095026;28;20386;-64
2022/01/11 03:46:41;;;;;;;3.00;2.28;;;21.10;33.60;;;;;;5095259;28;20394;-66
2022/01/11 03:49:07;;;;;;;2.80;2.53;;;21.00;33.40;;;;;;5093867;28;20382;-67
2022/01/11 03:51:35;;;;;;;3.20;2.40;;;21.00;33.60;;;;;;5094617;28;20387;-64
2022/01/11 03:54:09;;;;;;;2.95;2.30;;;21.00;33.50;;;;;;5095043;28;20863;-63
2022/01/11 03:56:35;;;;;;;2.42;2.10;;;21.00;33.50;;;;;;5094992;28;20382;-68
2022/01/11 03:59:06;;;;;;;3.00;2.40;;;21.00;33.50;;;;;;5095035;28;20465;-68
2022/01/11 04:01:33;;;;;;;2.95;2.40;;;20.90;33.70;;;;;;5094472;28;20862;-67
2022/01/11 04:03:58;;;;;;;2.95;2.47;;;20.90;33.50;;;;;;5094988;28;20409;-66
2022/01/11 04:06:26;;;;;;;4.53;2.50;;;20.90;33.50;;;;;;5093036;28;20902;-62
2022/01/11 04:08:52;;;;;;;3.13;2.50;;;21.00;34.20;;;;;;5093182;28;20410;-65
2022/01/11 04:11:18;;;;;;;6.00;3.08;;;21.00;33.90;;;;;;5094134;28;20385;-68
2022/01/11 04:13:44;;;;;;;5.20;2.80;;;21.00;33.90;;;;;;5094689;28;20446;-64
2022/01/11 04:16:10;;;;;;;4.13;2.92;;;21.00;34.60;;;;;;5094404;28;20435;-64
2022/01/11 04:18:36;;;;;;;5.38;2.55;;;21.00;35.40;;;;;;5094529;28;20776;-63
2022/01/11 04:21:03;;;;;;;4.68;2.55;;;21.10;36.00;;;;;;5094179;28;20527;-63
2022/01/11 04:23:28;;;;;;;4.60;2.43;;;21.10;36.70;;;;;;5093821;28;20837;-68
2022/01/11 04:25:54;;;;;;;6.88;3.28;;;21.20;35.70;;;;;;5094425;28;20390;-66
2022/01/11 04:28:23;;;;;;;7.10;2.90;;;21.10;35.30;;;;;;5094331;28;20383;-66
2022/01/11 04:30:59;;;;;;;6.32;2.55;;;21.10;36.20;;;;;;5093733;28;20371;-68
2022/01/11 04:33:30;;;;;;;4.80;2.70;;;21.10;36.60;;;;;;5093697;28;20436;-63
2022/01/11 04:35:58;;;;;;;5.65;2.65;;;21.10;36.60;;;;;;5092753;28;20386;-68
2022/01/11 04:38:28;;;;;;;3.55;2.25;;;21.20;37.10;;;;;;5093205;28;20390;-67
2022/01/11 04:40:54;;;;;;;5.65;2.88;;;21.20;37.20;;;;;;5094177;28;20378;-62
2022/01/11 04:43:20;;;;;;;4.95;2.33;;;21.20;36.20;;;;;;5093419;28;20394;-69
2022/01/11 04:45:47;;;;;;;9.00;2.90;;;21.20;36.70;;;;;;5093647;28;20378;-67
2022/01/11 04:48:14;;;;;;;4.80;2.33;;;21.20;36.60;;;;;;5093869;28;20421;-65
2022/01/11 04:50:40;;;;;;;3.92;2.28;;;21.20;36.50;;;;;;5093763;28;20410;-63
2022/01/11 04:53:06;;;;;;;4.72;2.33;;;21.20;36.50;;;;;;5093614;28;20912;-67
2022/01/11 04:55:32;;;;;;;3.23;2.30;;;21.20;36.70;;;;;;5093372;28;20468;-67
2022/01/11 04:57:58;;;;;;;6.07;2.50;;;21.20;36.80;;;;;;5093792;28;20400;-68
2022/01/11 05:00:24;;;;;;;5.27;2.37;;;21.30;36.50;;;;;;5093423;28;20487;-68
2022/01/11 05:02:50;;;;;;;7.50;2.40;;;21.30;36.90;;;;;;5093778;28;20465;-66
2022/01/11 05:05:16;;;;;;;5.15;2.55;;;21.30;36.30;;;;;;5093276;28;20882;-67
2022/01/11 05:07:46;;;;;;;10.47;2.67;;;21.30;36.60;;;;;;5092904;28;20390;-68
2022/01/11 05:10:12;;;;;;;4.72;2.20;;;21.30;36.20;;;;;;5093494;28;20382;-67
2022/01/11 05:12:38;;;;;;;5.20;2.17;;;21.40;36.20;;;;;;5091819;28;20397;-68
2022/01/11 05:15:14;;;;;;;5.15;1.90;;;21.40;36.30;;;;;;5093678;28;20416;-68
2022/01/11 05:17:40;;;;;;;4.40;2.13;;;21.40;35.70;;;;;;5093188;28;20374;-68
2022/01/11 05:20:07;;;;;;;4.80;2.20;;;21.40;34.90;;;;;;5093457;28;20469;-64
2022/01/11 05:22:34;;;;;;;7.53;2.10;;;21.40;34.70;;;;;;5091930;28;20386;-63
2022/01/11 05:24:59;;;;;;;5.28;2.17;;;21.30;34.80;;;;;;5093201;28;20765;-64
2022/01/11 05:27:27;;;;;;;5.25;2.30;;;21.30;34.80;;;;;;5092589;28;20386;-68
2022/01/11 05:29:54;;;;;;;5.53;1.95;;;21.30;35.30;;;;;;5093222;28;20465;-67
2022/01/11 05:32:20;;;;;;;5.15;2.47;;;21.30;35.30;;;;;;5092855;28;20417;-67
2022/01/11 05:34:45;;;;;;;5.90;2.38;;;21.40;35.40;;;;;;5093171;28;20389;-68
2022/01/11 05:37:11;;;;;;;6.32;2.30;;;21.40;35.40;;;;;;5092959;28;20472;-64
2022/01/11 05:39:37;;;;;;;6.03;2.60;;;21.40;35.10;;;;;;5092516;28;20475;-63
2022/01/11 05:42:07;;;;;;;4.30;2.17;;;21.40;35.60;;;;;;5091837;28;20418;-64
2022/01/11 05:44:36;;;;;;;5.67;2.20;;;21.50;36.20;;;;;;5092906;28;20413;-63
2022/01/11 05:47:03;;;;;;;9.43;2.37;;;21.60;36.80;;;;;;5092644;28;20423;-64
2022/01/11 05:49:29;;;;;;;5.13;2.45;;;21.60;37.00;;;;;;5091282;28;20797;-64
2022/01/11 05:51:54;;;;;;;5.93;2.73;;;21.60;37.60;;;;;;5090596;28;20425;-62
2022/01/11 05:54:20;;;;;;;6.63;2.60;;;21.70;37.10;;;;;;5092760;28;20401;-63
2022/01/11 05:56:46;;;;;;;6.63;2.30;;;21.70;37.20;;;;;;5092581;28;20460;-69
2022/01/11 05:59:11;;;;;;;7.43;2.45;;;21.70;37.50;;;;;;5091320;28;20463;-68
2022/01/11 06:01:37;;;;;;;8.20;2.47;;;21.70;37.50;;;;;;5094671;28;20390;-63
2022/01/11 06:04:03;;;;;;;9.73;2.40;;;21.70;37.10;;;;;;5092378;28;20892;-63
2022/01/11 06:06:29;;;;;;;5.18;2.30;;;21.70;37.10;;;;;;5091290;28;20385;-64
2022/01/11 06:08:55;;;;;;;5.83;2.20;;;21.70;37.00;;;;;;5092062;28;20469;-66
2022/01/11 06:11:20;;;;;;;6.85;2.35;;;21.70;36.90;;;;;;5090359;28;20386;-63
2022/01/11 06:13:47;;;;;;;5.20;2.47;;;21.70;36.70;;;;;;5090692;28;20418;-63
2022/01/11 06:16:13;;;;;;;5.60;2.28;;;21.70;36.20;;;;;;5090501;28;20385;-63
2022/01/11 06:18:39;;;;;;;4.67;2.30;;;21.70;36.50;;;;;;5091353;28;20426;-64
2022/01/11 06:21:04;;;;;;;6.18;2.35;;;21.70;36.80;;;;;;5089656;28;20382;-65
2022/01/11 06:23:30;;;;;;;3.77;2.40;;;21.70;35.90;;;;;;5089894;28;20770;-64
2022/01/11 06:25:56;;;;;;;4.90;2.22;;;21.70;36.60;;;;;;5090189;28;20389;-63
2022/01/11 06:28:21;;;;;;;5.83;2.60;;;21.70;36.70;;;;;;5086379;28;20406;-64
2022/01/11 06:30:47;;;;;;;4.05;2.00;;;21.80;36.50;;;;;;5090221;28;20382;-63
2022/01/11 06:33:14;;;;;;;6.05;2.30;;;21.80;36.60;;;;;;5090204;28;20418;-64
2022/01/11 06:35:39;;;;;;;4.95;2.30;;;21.80;36.80;;;;;;5089468;28;20469;-63
2022/01/11 06:38:05;;;;;;;4.17;2.00;;;21.80;37.00;;;;;;5089811;28;20516;-63
2022/01/11 06:40:31;;;;;;;4.35;2.08;;;21.80;36.60;;;;;;5089943;28;21144;-62
2022/01/11 06:42:57;;;;;;;5.03;2.40;;;21.80;36.80;;;;;;5090465;28;20402;-63
2022/01/11 06:45:23;;;;;;;4.00;2.00;;;21.80;36.80;;;;;;5090385;28;20400;-64
2022/01/11 06:47:48;;;;;;;3.85;2.03;;;21.80;36.80;;;;;;5090988;28;20393;-67
2022/01/11 06:50:14;;;;;;;5.50;2.30;;;21.80;36.70;;;;;;5091788;28;20390;-62
2022/01/11 06:52:41;;;;;;;4.57;2.50;;;21.80;36.40;;;;;;5088737;28;20494;-63
2022/01/11 06:55:08;;;;;;;4.00;1.92;;;21.70;36.30;;;;;;5091304;28;20382;-63
2022/01/11 06:57:35;;;;;;;4.07;2.17;;;21.70;36.00;;;;;;5090968;28;20379;-64
2022/01/11 07:00:01;;;;;;;4.55;2.05;;;21.70;35.70;;;;;;5091370;28;21052;-65
2022/01/11 07:02:26;;;;;;;3.53;2.10;;;21.60;35.50;;;;;;5091337;28;20477;-64
2022/01/11 07:04:52;;;;;;;4.97;1.80;;;21.60;35.50;;;;;;5091804;28;20488;-68
2022/01/11 07:07:18;;;;;;;3.00;1.80;;;21.60;35.30;;;;;;5091455;28;20409;-68
2022/01/11 07:09:44;;;;;;;3.00;1.90;;;21.60;35.20;;;;;;5089583;28;21090;-70
2022/01/11 07:12:10;;;;;;;3.00;2.00;;;21.60;35.20;;;;;;5091295;28;20493;-68
2022/01/11 07:14:35;;;;;;;3.27;1.80;;;21.60;35.00;;;;;;5091385;28;20385;-65
2022/01/11 07:17:01;;;;;;;2.53;1.90;;;21.60;35.00;;;;;;5091369;28;20730;-71
2022/01/11 07:19:31;;;;;;;4.23;2.20;;;21.60;34.80;;;;;;5089542;28;20913;-64
2022/01/11 07:22:00;;;;;;;2.72;1.80;;;21.60;34.80;;;;;;5090997;28;21169;-70
2022/01/11 07:24:27;;;;;;;2.60;1.88;;;21.50;34.70;;;;;;5091039;28;20401;-68
2022/01/11 07:26:56;;;;;;;3.05;1.92;;;21.50;34.70;;;;;;5090658;28;20483;-64
2022/01/11 07:29:22;;;;;;;4.15;1.92;;;21.50;34.60;;;;;;5090859;28;20471;-64
2022/01/11 07:31:47;;;;;;;3.17;1.80;;;21.50;34.70;;;;;;5090646;28;20866;-64
2022/01/11 07:34:13;;;;;;;2.83;1.70;;;21.50;34.60;;;;;;5091181;28;20877;-62
2022/01/11 07:36:41;;;;;;;2.85;2.03;;;21.50;34.60;;;;;;5091232;28;20386;-62
2022/01/11 07:39:07;;;;;;;3.47;1.95;;;21.40;34.50;;;;;;5091151;28;20390;-62
2022/01/11 07:41:36;;;;;;;2.35;1.80;;;21.50;34.50;;;;;;5090531;28;20943;-62
2022/01/11 07:44:02;;;;;;;2.40;1.80;;;21.50;34.50;;;;;;5091138;28;20431;-62
2022/01/11 07:46:27;;;;;;;5.10;1.98;;;21.40;34.40;;;;;;5091123;28;20401;-62
2022/01/11 07:48:53;;;;;;;2.85;1.73;;;21.40;34.40;;;;;;5091097;28;20424;-62
2022/01/11 07:51:19;;;;;;;2.20;1.83;;;21.40;34.40;;;;;;5090952;28;20878;-62
2022/01/11 07:53:45;;;;;;;2.45;1.80;;;21.40;34.40;;;;;;5088990;28;20413;-62
2022/01/11 07:56:11;;;;;;;2.58;1.80;;;21.40;34.30;;;;;;5089139;28;20439;-68
2022/01/11 07:58:36;;;;;;;2.73;1.70;;;21.40;34.30;;;;;;5091150;28;20419;-62
2022/01/11 08:01:02;;;;;;;2.97;1.92;;;21.40;34.20;;;;;;5090883;28;20795;-62
2022/01/11 08:03:28;;;;;;;3.10;2.10;;;21.30;34.20;;;;;;5090278;28;20390;-65
2022/01/11 08:05:54;;;;;;;2.00;1.80;;;21.30;34.10;;;;;;5092212;28;20385;-64
2022/01/11 08:08:22;;;;;;;2.63;1.90;;;21.30;34.20;;;;;;5093255;28;20902;-64
2022/01/11 08:10:47;;;;;;;3.17;2.00;;;21.30;34.10;;;;;;5094468;28;20386;-65
2022/01/11 08:13:13;;;;;;;3.00;2.15;;;21.30;34.00;;;;;;5094117;28;20483;-66
2022/01/11 08:15:40;;;;;;;2.60;1.90;;;21.30;34.10;;;;;;5093557;28;20411;-68
2022/01/11 08:18:06;;;;;;;2.17;1.85;;;21.30;34.00;;;;;;5094156;28;20877;-70
2022/01/11 08:20:32;;;;;;;2.10;1.90;;;21.30;34.00;;;;;;5093069;28;20459;-68
2022/01/11 08:22:58;;;;;;;2.65;1.90;;;21.30;33.90;;;;;;5094389;28;20438;-70
2022/01/11 08:25:24;;;;;;;3.00;2.30;;;21.30;34.00;;;;;;5111202;28;20491;-66
2022/01/11 08:27:50;;;;;;;2.63;2.00;;;21.30;34.00;;;;;;5114576;28;20399;-65
2022/01/11 08:30:16;;;;;;;2.60;1.90;;;21.20;33.90;;;;;;5114595;28;20410;-64
2022/01/11 08:32:42;;;;;;;3.20;2.20;;;21.30;33.90;;;;;;5113354;28;20404;-71
2022/01/11 08:35:08;;;;;;;2.40;2.10;;;21.30;34.00;;;;;;5113007;28;20402;-64
2022/01/11 08:37:34;;;;;;;2.30;1.90;;;21.30;34.00;;;;;;5104612;28;20404;-70
2022/01/11 08:40:00;;;;;;;3.00;2.08;;;21.20;34.00;;;;;;5092266;28;20428;-67
2022/01/11 08:42:29;;;;;;;3.08;2.13;;;21.20;33.90;;;;;;5107056;28;20492;-70
2022/01/11 08:44:56;;;;;;;2.55;2.10;;;21.20;33.90;;;;;;5111544;28;20408;-65
2022/01/11 08:47:22;;;;;;;2.63;2.40;;;21.20;33.90;;;;;;5114929;28;20392;-67
2022/01/11 08:49:48;;;;;;;2.92;2.33;;;21.20;33.90;;;;;;5113770;28;20433;-70
2022/01/11 08:52:14;;;;;;;2.90;2.30;;;21.20;33.90;;;;;;5113778;28;20396;-65
2022/01/11 08:54:40;;;;;;;2.80;2.20;;;21.20;33.90;;;;;;5114057;28;20920;-64
2022/01/11 08:57:06;;;;;;;2.55;2.13;;;21.20;33.80;;;;;;5113810;28;20377;-64
2022/01/11 08:59:32;;;;;;;2.80;2.22;;;21.20;33.80;;;;;;5113206;28;20466;-65
2022/01/11 09:02:01;;;;;;;2.58;2.10;;;21.20;33.80;;;;;;5114197;28;20388;-65
2022/01/11 09:04:27;;;;;;;2.85;2.17;;;21.20;33.80;;;;;;5113815;28;20380;-64
2022/01/11 09:06:57;;;;;;;3.47;2.30;;;21.20;33.80;;;;;;5113996;28;20385;-65
2022/01/11 09:09:24;;;;;;;2.80;2.40;;;21.20;33.80;;;;;;5113487;28;20918;-65
2022/01/11 09:11:51;;;;;;;2.65;2.30;;;21.10;33.70;;;;;;5113477;28;20391;-72
2022/01/11 09:14:17;;;;;;;2.75;2.20;;;21.10;33.70;;;;;;5106543;28;20431;-67
2022/01/11 09:16:44;;;;;;;3.80;2.50;;;21.10;33.70;;;;;;5103028;28;20431;-65
2022/01/11 09:19:14;;;;;;;2.80;2.45;;;21.10;33.80;;;;;;5103701;28;20418;-64
2022/01/11 09:21:40;;;;;;;2.60;2.40;;;21.10;33.80;;;;;;5099361;28;20421;-64
2022/01/11 09:24:05;;;;;;;2.55;2.13;;;21.10;33.70;;;;;;5102830;28;20403;-65
2022/01/11 09:26:31;;;;;;;3.42;2.38;;;21.10;33.70;;;;;;5111983;28;20823;-65
2022/01/11 09:28:58;;;;;;;3.30;2.63;;;21.10;33.70;;;;;;5113306;28;20868;-62
2022/01/11 09:31:23;;;;;;;2.63;2.20;;;21.10;33.70;;;;;;5111801;28;20388;-62
2022/01/11 09:33:50;;;;;;;3.50;2.40;;;21.10;33.70;;;;;;5112787;28;20489;-63
2022/01/11 09:36:16;;;;;;;2.80;2.42;;;21.10;33.70;;;;;;5113361;28;20389;-67
2022/01/11 09:38:41;;;;;;;3.50;2.30;;;21.10;33.60;;;;;;5112047;28;20765;-63
2022/01/11 09:41:07;;;;;;;3.00;2.40;;;21.10;33.60;;;;;;5113197;28;20388;-64
2022/01/11 09:43:33;;;;;;;2.80;2.30;;;21.10;33.60;;;;;;5112807;28;20805;-65
2022/01/11 09:45:59;;;;;;;3.10;2.40;;;21.10;33.60;;;;;;5113175;28;20388;-64
2022/01/11 09:48:29;;;;;;;3.30;2.50;;;21.10;33.60;;;;;;5113193;28;20417;-63
2022/01/11 09:50:56;;;;;;;3.13;2.42;;;21.10;33.60;;;;;;5113146;28;20384;-62
2022/01/11 09:53:22;;;;;;;2.60;2.38;;;21.10;33.70;;;;;;5112824;28;20418;-62
2022/01/11 09:55:48;;;;;;;3.67;2.53;;;21.10;33.60;;;;;;5112590;28;20463;-62
2022/01/11 09:58:14;;;;;;;2.63;2.33;;;21.10;33.60;;;;;;5112891;28;20479;-63
2022/01/11 10:00:41;;;;;;;2.83;2.53;;;21.10;33.70;;;;;;5113042;28;20415;-62
2022/01/11 10:03:07;;;;;;;3.17;2.40;;;21.10;33.70;;;;;;5113010;28;20392;-63
2022/01/11 10:05:35;;;;;;;2.83;2.42;;;21.10;34.00;;;;;;5112620;28;20471;-65
2022/01/11 10:08:21;;;;;;;2.80;2.22;;;21.00;34.30;;;;;;5112666;28;20404;-67
2022/01/11 10:10:48;;;;;;;3.58;2.60;;;21.00;34.60;;;;;;5113017;28;20441;-65
2022/01/11 10:13:35;;;;;;;11.57;5.03;;;21.10;34.50;;;;;;5112979;28;20491;-64
2022/01/11 10:16:23;;;;;;;73.20;23.55;;;21.10;34.70;;;;;;5094888;28;20752;-63
2022/01/11 10:18:53;;;;;;;65.37;20.33;;;21.20;35.70;;;;;;5112137;28;20407;-63
2022/01/11 10:21:30;;;;;;;68.22;20.55;;;21.20;34.30;;;;;;5112416;28;20392;-63
2022/01/11 10:23:56;;;;;;;63.90;20.13;;;21.20;34.80;;;;;;5112084;28;20376;-63
2022/01/11 10:26:53;;;;;;;38.63;14.65;;;21.20;35.10;;;;;;5112308;28;20752;-62
2022/01/11 10:29:47;;;;;;;30.23;11.40;;;21.20;35.30;;;;;;5099315;28;20423;-63
2022/01/11 10:32:20;;;;;;;31.33;12.35;;;21.20;35.40;;;;;;5109955;28;20419;-63
2022/01/11 10:34:49;;;;;;;28.98;10.35;;;21.20;35.00;;;;;;5112129;28;20389;-62
2022/01/11 10:37:35;;;;;;;23.00;9.20;;;21.20;34.80;;;;;;5112287;28;20377;-63
2022/01/11 10:40:23;;;;;;;21.00;7.28;;;21.20;34.60;;;;;;5111933;28;20395;-63
2022/01/11 10:43:04;;;;;;;18.42;6.65;;;21.20;34.40;;;;;;5112326;28;20386;-62
2022/01/11 10:45:35;;;;;;;15.20;5.97;;;21.20;34.30;;;;;;5112076;28;20399;-63
2022/01/11 10:48:05;;;;;;;15.60;6.10;;;21.20;34.30;;;;;;5111898;28;20468;-62
2022/01/11 10:50:39;;;;;;;14.57;6.05;;;21.20;34.30;;;;;;5112139;28;20384;-66
2022/01/11 10:53:39;;;;;;;12.75;5.93;;;21.20;34.30;;;;;;5111816;28;20466;-63
2022/01/11 10:56:07;;;;;;;14.93;5.47;;;21.20;34.20;;;;;;5111938;28;20522;-63
2022/01/11 10:58:36;;;;;;;12.43;5.45;;;21.20;34.30;;;;;;5112216;28;20871;-63
2022/01/11 11:01:03;;;;;;;8.88;4.78;;;21.20;34.20;;;;;;5111623;28;20419;-62
2022/01/11 11:03:32;;;;;;;10.00;4.57;;;21.20;34.10;;;;;;5111818;28;20392;-62
2022/01/11 11:06:00;;;;;;;8.70;4.40;;;21.20;34.60;;;;;;5111670;28;20384;-62
2022/01/11 11:08:34;;;;;;;7.90;4.20;;;21.30;34.00;;;;;;5111662;28;20407;-64
2022/01/11 11:11:05;;;;;;;8.73;4.10;;;21.30;33.70;;;;;;5112001;28;20388;-63
2022/01/11 11:13:34;;;;;;;8.18;4.03;;;21.30;33.70;;;;;;5111560;28;20480;-62
2022/01/11 11:16:11;;;;;;;7.75;4.05;;;21.30;33.60;;;;;;5111536;28;20381;-62
2022/01/11 11:18:45;;;;;;;6.25;3.88;;;21.30;33.50;;;;;;5111596;28;20393;-63
2022/01/11 11:21:25;;;;;;;6.53;3.80;;;21.30;33.40;;;;;;5111653;28;20373;-63
2022/01/11 11:23:54;;;;;;;6.55;3.55;;;21.30;33.30;;;;;;5111309;28;20452;-63
2022/01/11 11:26:22;;;;;;;5.82;3.20;;;21.30;33.30;;;;;;5111674;28;20380;-63
2022/01/11 11:28:48;;;;;;;6.82;3.17;;;21.30;33.30;;;;;;5111523;28;20485;-68
2022/01/11 11:31:14;;;;;;;7.38;3.13;;;21.20;33.40;;;;;;5112439;28;20513;-68
2022/01/11 11:33:41;;;;;;;5.32;3.13;;;21.20;33.40;;;;;;5112022;28;20837;-63
2022/01/11 11:36:11;;;;;;;4.97;3.03;;;21.20;33.50;;;;;;5111598;28;20387;-62
2022/01/11 11:38:43;;;;;;;5.03;3.10;;;21.10;33.50;;;;;;5111571;28;20380;-63
2022/01/11 11:41:09;;;;;;;5.25;2.83;;;21.10;33.50;;;;;;5113458;28;20372;-65
2022/01/11 11:43:34;;;;;;;4.50;2.75;;;21.10;33.60;;;;;;5115385;28;20748;-67
2022/01/11 11:46:00;;;;;;;5.53;2.70;;;21.10;33.60;;;;;;5115166;28;20384;-67
2022/01/11 11:48:28;;;;;;;4.55;2.90;;;21.10;33.60;;;;;;5115488;28;20797;-63
2022/01/11 11:51:06;;;;;;;4.90;2.50;;;21.10;33.50;;;;;;5115361;28;20373;-63
2022/01/11 11:53:37;;;;;;;3.47;2.50;;;21.10;33.60;;;;;;5115307;28;20502;-63
2022/01/11 11:56:21;;;;;;;3.45;2.55;;;21.10;33.60;;;;;;5115005;28;20376;-63
2022/01/11 11:58:56;;;;;;;3.67;2.45;;;21.10;33.60;;;;;;5115334;28;20388;-63
2022/01/11 12:01:47;;;;;;;4.10;2.60;;;21.00;33.50;;;;;;5115174;28;20391;-66
2022/01/11 12:04:37;;;;;;;2.78;2.28;;;21.10;33.60;;;;;;5115235;28;20389;-62
2022/01/11 12:07:41;;;;;;;3.08;2.45;;;21.10;33.40;;;;;;5114987;28;20839;-63
2022/01/11 12:10:16;;;;;;;3.35;2.45;;;21.10;33.50;;;;;;5112784;27;20945;-64
2022/01/11 12:12:49;;;;;;;3.50;2.40;;;21.10;33.40;;;;;;5115054;28;20465;-62
2022/01/11 12:15:35;;;;;;;3.17;2.40;;;21.00;33.40;;;;;;5114989;28;20379;-62
2022/01/11 12:18:00;;;;;;;2.65;2.28;;;21.10;33.50;;;;;;5114676;28;20384;-63
2022/01/11 12:20:41;;;;;;;3.00;2.40;;;21.10;33.50;;;;;;5114775;28;20380;-63
2022/01/11 12:23:08;;;;;;;3.00;2.25;;;21.10;33.50;;;;;;5114810;28;20384;-64
2022/01/11 12:25:41;;;;;;;2.78;2.20;;;21.10;33.50;;;;;;5114925;28;20400;-67
2022/01/11 12:28:15;;;;;;;2.90;2.15;;;21.10;33.40;;;;;;5116046;28;20408;-69
2022/01/11 12:30:42;;;;;;;2.90;2.25;;;21.00;33.30;;;;;;5115158;28;20748;-69
2022/01/11 12:33:25;;;;;;;2.93;2.60;;;21.00;33.40;;;;;;5113397;28;20499;-68
2022/01/11 12:35:56;;;;;;;2.78;2.40;;;21.10;33.30;;;;;;5114257;28;20439;-67
2022/01/11 12:38:23;;;;;;;3.05;2.50;;;21.10;33.40;;;;;;5114666;28;20804;-66
2022/01/11 12:40:49;;;;;;;2.83;2.50;;;21.10;33.30;;;;;;5115723;28;20385;-68
2022/01/11 12:43:39;;;;;;;3.38;2.40;;;21.20;33.30;;;;;;5114735;28;20867;-69
2022/01/11 12:46:11;;;;;;;3.55;2.45;;;21.20;33.20;;;;;;5115739;28;20429;-64
2022/01/11 12:48:42;;;;;;;2.75;2.50;;;21.20;33.10;;;;;;5115782;28;20384;-67
2022/01/11 12:51:29;;;;;;;2.67;2.22;;;21.30;33.10;;;;;;5114062;28;20506;-69
2022/01/11 12:54:15;;;;;;;4.20;2.70;;;21.30;32.70;;;;;;5113835;28;20547;-62